sensor_id;sensor_type;location;lat;lon;timestamp;P1;durP1;ratioP1;P2;durP2;ratioP2
17177;SDS011;8704;52.006;4.374;2024-03-06T00:00:19;44.25;;;39.75;;
17177;SDS011;8704;52.006;4.374;2024-03-06T00:02:49;41.03;;;36.83;;
17177;SDS011;8704;52.006;4.374;2024-03-06T00:05:17;41.80;;;37.63;;
17177;SDS011;8704;52.006;4.374;2024-03-06T00:07:45;42.45;;;38.15;;
17177;SDS011;8704;52.006;4.374;2024-03-06T00:10:14;40.53;;;36.35;;
17177;SDS011;8704;52.006;4.374;2024-03-06T00:12:43;45.08;;;40.47;;
17177;SDS011;8704;52.006;4.374;2024-03-06T00:15:12;42.50;;;38.17;;
17177;SDS011;8704;52.006;4.374;2024-03-06T00:17:40;43.58;;;39.15;;
17177;SDS011;8704;52.006;4.374;2024-03-06T00:20:09;43.17;;;38.97;;
17177;SDS011;8704;52.006;4.374;2024-03-06T00:22:38;47.50;;;42.63;;
17177;SDS011;8704;52.006;4.374;2024-03-06T00:25:06;46.10;;;41.42;;
17177;SDS011;8704;52.006;4.374;2024-03-06T00:27:35;49.17;;;44.45;;
17177;SDS011;8704;52.006;4.374;2024-03-06T00:30:06;49.88;;;45.08;;
17177;SDS011;8704;52.006;4.374;2024-03-06T00:32:34;57.90;;;52.20;;
17177;SDS011;8704;52.006;4.374;2024-03-06T00:35:03;59.53;;;54.15;;
17177;SDS011;8704;52.006;4.374;2024-03-06T00:37:32;51.25;;;46.45;;
17177;SDS011;8704;52.006;4.374;2024-03-06T00:40:00;53.70;;;48.80;;
17177;SDS011;8704;52.006;4.374;2024-03-06T00:42:29;51.92;;;46.83;;
17177;SDS011;8704;52.006;4.374;2024-03-06T00:44:57;46.20;;;41.63;;
17177;SDS011;8704;52.006;4.374;2024-03-06T00:47:27;51.70;;;46.53;;
17177;SDS011;8704;52.006;4.374;2024-03-06T00:49:55;48.40;;;43.65;;
17177;SDS011;8704;52.006;4.374;2024-03-06T00:52:24;50.22;;;45.35;;
17177;SDS011;8704;52.006;4.374;2024-03-06T00:54:52;49.45;;;44.47;;
17177;SDS011;8704;52.006;4.374;2024-03-06T00:57:20;46.47;;;42.08;;
17177;SDS011;8704;52.006;4.374;2024-03-06T00:59:49;49.13;;;44.25;;
17177;SDS011;8704;52.006;4.374;2024-03-06T01:02:17;52.45;;;47.65;;
17177;SDS011;8704;52.006;4.374;2024-03-06T01:04:47;56.97;;;51.63;;
17177;SDS011;8704;52.006;4.374;2024-03-06T01:07:15;56.00;;;50.95;;
17177;SDS011;8704;52.006;4.374;2024-03-06T01:09:44;51.15;;;46.38;;
17177;SDS011;8704;52.006;4.374;2024-03-06T01:12:12;48.50;;;43.90;;
17177;SDS011;8704;52.006;4.374;2024-03-06T01:14:40;50.33;;;45.20;;
17177;SDS011;8704;52.006;4.374;2024-03-06T01:17:11;47.28;;;42.55;;
17177;SDS011;8704;52.006;4.374;2024-03-06T01:19:40;46.92;;;42.22;;
17177;SDS011;8704;52.006;4.374;2024-03-06T01:22:11;45.58;;;41.08;;
17177;SDS011;8704;52.006;4.374;2024-03-06T01:24:39;50.05;;;45.30;;
17177;SDS011;8704;52.006;4.374;2024-03-06T01:27:08;61.05;;;55.22;;
17177;SDS011;8704;52.006;4.374;2024-03-06T01:29:36;62.10;;;56.58;;
17177;SDS011;8704;52.006;4.374;2024-03-06T01:32:04;55.33;;;50.00;;
17177;SDS011;8704;52.006;4.374;2024-03-06T01:34:33;57.53;;;52.35;;
17177;SDS011;8704;52.006;4.374;2024-03-06T01:37:03;53.72;;;48.53;;
17177;SDS011;8704;52.006;4.374;2024-03-06T01:39:38;48.10;;;43.50;;
17177;SDS011;8704;52.006;4.374;2024-03-06T01:42:08;53.65;;;48.75;;
17177;SDS011;8704;52.006;4.374;2024-03-06T01:44:38;46.47;;;41.97;;
17177;SDS011;8704;52.006;4.374;2024-03-06T01:47:07;46.88;;;42.33;;
17177;SDS011;8704;52.006;4.374;2024-03-06T01:49:36;45.05;;;40.45;;
17177;SDS011;8704;52.006;4.374;2024-03-06T01:52:11;43.72;;;39.22;;
17177;SDS011;8704;52.006;4.374;2024-03-06T01:54:43;46.97;;;42.28;;
17177;SDS011;8704;52.006;4.374;2024-03-06T01:57:15;46.58;;;41.75;;
17177;SDS011;8704;52.006;4.374;2024-03-06T01:59:45;44.05;;;39.53;;
17177;SDS011;8704;52.006;4.374;2024-03-06T02:02:15;48.03;;;43.25;;
17177;SDS011;8704;52.006;4.374;2024-03-06T02:04:45;52.63;;;47.25;;
17177;SDS011;8704;52.006;4.374;2024-03-06T02:07:13;56.67;;;51.03;;
17177;SDS011;8704;52.006;4.374;2024-03-06T02:09:43;54.80;;;49.15;;
17177;SDS011;8704;52.006;4.374;2024-03-06T02:12:12;53.30;;;47.75;;
17177;SDS011;8704;52.006;4.374;2024-03-06T02:14:41;51.30;;;45.97;;
17177;SDS011;8704;52.006;4.374;2024-03-06T02:17:09;49.05;;;44.05;;
17177;SDS011;8704;52.006;4.374;2024-03-06T02:19:41;47.97;;;42.90;;
17177;SDS011;8704;52.006;4.374;2024-03-06T02:22:11;51.83;;;46.50;;
17177;SDS011;8704;52.006;4.374;2024-03-06T02:24:42;54.75;;;49.20;;
17177;SDS011;8704;52.006;4.374;2024-03-06T02:27:11;53.97;;;48.28;;
17177;SDS011;8704;52.006;4.374;2024-03-06T02:29:39;57.05;;;51.30;;
17177;SDS011;8704;52.006;4.374;2024-03-06T02:32:08;54.47;;;48.95;;
17177;SDS011;8704;52.006;4.374;2024-03-06T02:34:36;53.10;;;47.20;;
17177;SDS011;8704;52.006;4.374;2024-03-06T02:37:05;51.83;;;46.63;;
17177;SDS011;8704;52.006;4.374;2024-03-06T02:39:34;53.28;;;47.78;;
17177;SDS011;8704;52.006;4.374;2024-03-06T02:42:03;48.80;;;43.60;;
17177;SDS011;8704;52.006;4.374;2024-03-06T02:44:31;47.25;;;42.38;;
17177;SDS011;8704;52.006;4.374;2024-03-06T02:47:00;47.60;;;42.55;;
17177;SDS011;8704;52.006;4.374;2024-03-06T02:49:29;50.95;;;45.50;;
17177;SDS011;8704;52.006;4.374;2024-03-06T02:51:57;47.83;;;42.70;;
17177;SDS011;8704;52.006;4.374;2024-03-06T02:54:27;49.92;;;44.70;;
17177;SDS011;8704;52.006;4.374;2024-03-06T02:56:57;50.03;;;44.60;;
17177;SDS011;8704;52.006;4.374;2024-03-06T02:59:26;54.58;;;49.03;;
17177;SDS011;8704;52.006;4.374;2024-03-06T03:01:54;52.55;;;47.05;;
17177;SDS011;8704;52.006;4.374;2024-03-06T03:04:23;52.55;;;46.95;;
17177;SDS011;8704;52.006;4.374;2024-03-06T03:06:52;50.22;;;44.90;;
17177;SDS011;8704;52.006;4.374;2024-03-06T03:09:21;55.20;;;49.53;;
17177;SDS011;8704;52.006;4.374;2024-03-06T03:11:49;58.72;;;52.92;;
17177;SDS011;8704;52.006;4.374;2024-03-06T03:14:19;56.05;;;50.42;;
17177;SDS011;8704;52.006;4.374;2024-03-06T03:16:47;62.10;;;55.90;;
17177;SDS011;8704;52.006;4.374;2024-03-06T03:19:16;58.65;;;52.65;;
17177;SDS011;8704;52.006;4.374;2024-03-06T03:21:44;58.70;;;52.78;;
17177;SDS011;8704;52.006;4.374;2024-03-06T03:24:13;55.50;;;49.72;;
17177;SDS011;8704;52.006;4.374;2024-03-06T03:26:42;56.33;;;50.78;;
17177;SDS011;8704;52.006;4.374;2024-03-06T03:29:11;55.88;;;50.30;;
17177;SDS011;8704;52.006;4.374;2024-03-06T03:31:40;65.47;;;59.13;;
17177;SDS011;8704;52.006;4.374;2024-03-06T03:34:09;66.43;;;60.25;;
17177;SDS011;8704;52.006;4.374;2024-03-06T03:36:39;62.88;;;57.25;;
17177;SDS011;8704;52.006;4.374;2024-03-06T03:39:09;59.50;;;53.92;;
17177;SDS011;8704;52.006;4.374;2024-03-06T03:41:43;71.50;;;65.10;;
17177;SDS011;8704;52.006;4.374;2024-03-06T03:44:12;78.00;;;71.05;;
17177;SDS011;8704;52.006;4.374;2024-03-06T03:46:42;77.75;;;70.97;;
17177;SDS011;8704;52.006;4.374;2024-03-06T03:49:11;73.25;;;66.72;;
17177;SDS011;8704;52.006;4.374;2024-03-06T03:51:39;73.63;;;66.97;;
17177;SDS011;8704;52.006;4.374;2024-03-06T03:54:08;72.70;;;66.25;;
17177;SDS011;8704;52.006;4.374;2024-03-06T03:56:36;66.93;;;60.78;;
17177;SDS011;8704;52.006;4.374;2024-03-06T03:59:05;83.55;;;76.32;;
17177;SDS011;8704;52.006;4.374;2024-03-06T04:01:34;79.95;;;72.93;;
17177;SDS011;8704;52.006;4.374;2024-03-06T04:04:04;86.80;;;79.63;;
17177;SDS011;8704;52.006;4.374;2024-03-06T04:06:33;76.65;;;69.95;;
17177;SDS011;8704;52.006;4.374;2024-03-06T04:09:01;70.93;;;64.45;;
17177;SDS011;8704;52.006;4.374;2024-03-06T04:11:30;78.57;;;71.75;;
17177;SDS011;8704;52.006;4.374;2024-03-06T04:14:01;77.22;;;70.47;;
17177;SDS011;8704;52.006;4.374;2024-03-06T04:16:29;75.85;;;68.75;;
17177;SDS011;8704;52.006;4.374;2024-03-06T04:18:59;70.03;;;63.42;;
17177;SDS011;8704;52.006;4.374;2024-03-06T04:21:29;77.68;;;70.78;;
17177;SDS011;8704;52.006;4.374;2024-03-06T04:23:58;74.63;;;67.93;;
17177;SDS011;8704;52.006;4.374;2024-03-06T04:26:26;72.90;;;66.40;;
17177;SDS011;8704;52.006;4.374;2024-03-06T04:28:54;70.45;;;64.05;;
17177;SDS011;8704;52.006;4.374;2024-03-06T04:31:23;72.70;;;66.30;;
17177;SDS011;8704;52.006;4.374;2024-03-06T04:33:51;70.72;;;64.10;;
17177;SDS011;8704;52.006;4.374;2024-03-06T04:36:19;70.80;;;64.50;;
17177;SDS011;8704;52.006;4.374;2024-03-06T04:38:49;64.55;;;58.55;;
17177;SDS011;8704;52.006;4.374;2024-03-06T04:41:18;58.60;;;53.00;;
17177;SDS011;8704;52.006;4.374;2024-03-06T04:43:46;60.10;;;54.08;;
17177;SDS011;8704;52.006;4.374;2024-03-06T04:46:17;59.25;;;53.78;;
17177;SDS011;8704;52.006;4.374;2024-03-06T04:48:47;59.28;;;53.35;;
17177;SDS011;8704;52.006;4.374;2024-03-06T04:51:16;59.20;;;53.67;;
17177;SDS011;8704;52.006;4.374;2024-03-06T04:53:46;59.97;;;53.88;;
17177;SDS011;8704;52.006;4.374;2024-03-06T04:56:16;57.70;;;52.25;;
17177;SDS011;8704;52.006;4.374;2024-03-06T04:58:45;53.25;;;48.05;;
17177;SDS011;8704;52.006;4.374;2024-03-06T05:01:14;52.83;;;47.53;;
17177;SDS011;8704;52.006;4.374;2024-03-06T05:03:42;56.40;;;50.97;;
17177;SDS011;8704;52.006;4.374;2024-03-06T05:06:28;54.03;;;48.75;;
17177;SDS011;8704;52.006;4.374;2024-03-06T05:09:14;56.90;;;51.33;;
17177;SDS011;8704;52.006;4.374;2024-03-06T05:12:01;62.55;;;56.92;;
17177;SDS011;8704;52.006;4.374;2024-03-06T05:14:47;59.83;;;53.90;;
17177;SDS011;8704;52.006;4.374;2024-03-06T05:17:33;58.78;;;53.03;;
17177;SDS011;8704;52.006;4.374;2024-03-06T05:20:19;58.97;;;53.55;;
17177;SDS011;8704;52.006;4.374;2024-03-06T05:23:05;59.03;;;53.40;;
17177;SDS011;8704;52.006;4.374;2024-03-06T05:25:50;58.13;;;52.60;;
17177;SDS011;8704;52.006;4.374;2024-03-06T05:28:37;54.65;;;49.03;;
17177;SDS011;8704;52.006;4.374;2024-03-06T05:31:23;52.92;;;47.45;;
17177;SDS011;8704;52.006;4.374;2024-03-06T05:34:09;52.80;;;47.55;;
17177;SDS011;8704;52.006;4.374;2024-03-06T05:36:55;52.55;;;47.50;;
17177;SDS011;8704;52.006;4.374;2024-03-06T05:39:41;60.05;;;54.22;;
17177;SDS011;8704;52.006;4.374;2024-03-06T05:42:27;62.28;;;56.58;;
17177;SDS011;8704;52.006;4.374;2024-03-06T05:45:15;64.95;;;58.95;;
17177;SDS011;8704;52.006;4.374;2024-03-06T05:48:01;60.75;;;55.13;;
17177;SDS011;8704;52.006;4.374;2024-03-06T05:50:47;54.38;;;49.25;;
17177;SDS011;8704;52.006;4.374;2024-03-06T05:53:35;54.78;;;49.45;;
17177;SDS011;8704;52.006;4.374;2024-03-06T05:56:22;57.85;;;52.30;;
17177;SDS011;8704;52.006;4.374;2024-03-06T05:59:07;58.28;;;52.70;;
17177;SDS011;8704;52.006;4.374;2024-03-06T06:01:37;64.60;;;58.35;;
17177;SDS011;8704;52.006;4.374;2024-03-06T06:04:06;61.30;;;55.67;;
17177;SDS011;8704;52.006;4.374;2024-03-06T06:06:35;61.55;;;55.80;;
17177;SDS011;8704;52.006;4.374;2024-03-06T06:09:03;62.10;;;56.13;;
17177;SDS011;8704;52.006;4.374;2024-03-06T06:11:33;61.03;;;55.10;;
17177;SDS011;8704;52.006;4.374;2024-03-06T06:14:02;63.25;;;57.13;;
17177;SDS011;8704;52.006;4.374;2024-03-06T06:16:35;66.88;;;60.50;;
17177;SDS011;8704;52.006;4.374;2024-03-06T06:19:04;67.47;;;61.20;;
17177;SDS011;8704;52.006;4.374;2024-03-06T06:21:33;63.05;;;57.15;;
17177;SDS011;8704;52.006;4.374;2024-03-06T06:24:02;63.47;;;57.47;;
17177;SDS011;8704;52.006;4.374;2024-03-06T06:26:31;67.55;;;61.28;;
17177;SDS011;8704;52.006;4.374;2024-03-06T06:29:00;79.95;;;72.80;;
17177;SDS011;8704;52.006;4.374;2024-03-06T06:31:28;77.93;;;71.40;;
17177;SDS011;8704;52.006;4.374;2024-03-06T06:33:57;77.38;;;70.60;;
17177;SDS011;8704;52.006;4.374;2024-03-06T06:36:27;70.60;;;64.32;;
17177;SDS011;8704;52.006;4.374;2024-03-06T06:38:56;71.40;;;64.68;;
17177;SDS011;8704;52.006;4.374;2024-03-06T06:41:28;70.93;;;64.32;;
17177;SDS011;8704;52.006;4.374;2024-03-06T06:43:56;75.40;;;68.93;;
17177;SDS011;8704;52.006;4.374;2024-03-06T06:46:25;77.28;;;70.22;;
17177;SDS011;8704;52.006;4.374;2024-03-06T06:48:53;75.72;;;69.22;;
17177;SDS011;8704;52.006;4.374;2024-03-06T06:51:21;78.70;;;71.70;;
17177;SDS011;8704;52.006;4.374;2024-03-06T06:53:52;78.57;;;71.75;;
17177;SDS011;8704;52.006;4.374;2024-03-06T06:56:23;81.38;;;74.10;;
17177;SDS011;8704;52.006;4.374;2024-03-06T06:58:51;81.70;;;75.07;;
17177;SDS011;8704;52.006;4.374;2024-03-06T07:01:20;78.75;;;72.43;;
17177;SDS011;8704;52.006;4.374;2024-03-06T07:03:48;84.57;;;77.72;;
17177;SDS011;8704;52.006;4.374;2024-03-06T07:06:16;91.32;;;83.78;;
17177;SDS011;8704;52.006;4.374;2024-03-06T07:08:45;92.72;;;85.32;;
17177;SDS011;8704;52.006;4.374;2024-03-06T07:11:16;101.13;;;92.63;;
17177;SDS011;8704;52.006;4.374;2024-03-06T07:13:45;105.65;;;96.97;;
17177;SDS011;8704;52.006;4.374;2024-03-06T07:16:13;107.57;;;98.88;;
17177;SDS011;8704;52.006;4.374;2024-03-06T07:18:42;110.97;;;101.97;;
17177;SDS011;8704;52.006;4.374;2024-03-06T07:21:10;110.05;;;101.50;;
17177;SDS011;8704;52.006;4.374;2024-03-06T07:23:38;111.68;;;102.97;;
17177;SDS011;8704;52.006;4.374;2024-03-06T07:26:07;124.95;;;115.15;;
17177;SDS011;8704;52.006;4.374;2024-03-06T07:28:37;143.20;;;132.52;;
17177;SDS011;8704;52.006;4.374;2024-03-06T07:31:06;148.45;;;137.98;;
17177;SDS011;8704;52.006;4.374;2024-03-06T07:33:34;167.32;;;155.20;;
17177;SDS011;8704;52.006;4.374;2024-03-06T07:36:04;176.48;;;164.27;;
17177;SDS011;8704;52.006;4.374;2024-03-06T07:38:33;178.38;;;166.13;;
17177;SDS011;8704;52.006;4.374;2024-03-06T07:41:01;193.98;;;180.60;;
17177;SDS011;8704;52.006;4.374;2024-03-06T07:43:30;200.25;;;187.07;;
17177;SDS011;8704;52.006;4.374;2024-03-06T07:46:00;205.38;;;192.13;;
17177;SDS011;8704;52.006;4.374;2024-03-06T07:48:28;203.32;;;189.82;;
17177;SDS011;8704;52.006;4.374;2024-03-06T07:50:55;211.10;;;197.57;;
17177;SDS011;8704;52.006;4.374;2024-03-06T07:53:24;221.75;;;207.35;;
17177;SDS011;8704;52.006;4.374;2024-03-06T07:55:52;227.63;;;212.77;;
17177;SDS011;8704;52.006;4.374;2024-03-06T07:58:21;234.93;;;220.13;;
17177;SDS011;8704;52.006;4.374;2024-03-06T08:00:49;236.32;;;220.77;;
17177;SDS011;8704;52.006;4.374;2024-03-06T08:03:21;264.40;;;247.65;;
17177;SDS011;8704;52.006;4.374;2024-03-06T08:05:51;273.45;;;256.38;;
17177;SDS011;8704;52.006;4.374;2024-03-06T08:08:20;274.02;;;256.95;;
17177;SDS011;8704;52.006;4.374;2024-03-06T08:10:49;276.08;;;259.60;;
17177;SDS011;8704;52.006;4.374;2024-03-06T08:13:17;285.38;;;267.48;;
17177;SDS011;8704;52.006;4.374;2024-03-06T08:15:46;297.25;;;278.60;;
17177;SDS011;8704;52.006;4.374;2024-03-06T08:18:14;298.08;;;278.95;;
17177;SDS011;8704;52.006;4.374;2024-03-06T08:20:44;299.65;;;280.83;;
17177;SDS011;8704;52.006;4.374;2024-03-06T08:23:13;300.33;;;281.50;;
17177;SDS011;8704;52.006;4.374;2024-03-06T08:25:41;310.67;;;291.20;;
17177;SDS011;8704;52.006;4.374;2024-03-06T08:28:09;308.30;;;288.80;;
17177;SDS011;8704;52.006;4.374;2024-03-06T08:30:38;305.25;;;286.08;;
17177;SDS011;8704;52.006;4.374;2024-03-06T08:33:06;312.42;;;293.05;;
17177;SDS011;8704;52.006;4.374;2024-03-06T08:35:35;329.77;;;309.25;;
17177;SDS011;8704;52.006;4.374;2024-03-06T08:38:05;335.25;;;314.35;;
17177;SDS011;8704;52.006;4.374;2024-03-06T08:40:33;323.52;;;302.70;;
17177;SDS011;8704;52.006;4.374;2024-03-06T08:43:04;310.83;;;291.15;;
17177;SDS011;8704;52.006;4.374;2024-03-06T08:45:32;302.23;;;283.63;;
17177;SDS011;8704;52.006;4.374;2024-03-06T08:48:00;290.52;;;272.20;;
17177;SDS011;8704;52.006;4.374;2024-03-06T08:50:30;274.48;;;257.05;;
17177;SDS011;8704;52.006;4.374;2024-03-06T08:52:58;247.82;;;231.57;;
17177;SDS011;8704;52.006;4.374;2024-03-06T08:55:29;227.82;;;212.80;;
17177;SDS011;8704;52.006;4.374;2024-03-06T08:57:58;205.65;;;191.75;;
17177;SDS011;8704;52.006;4.374;2024-03-06T09:00:27;193.88;;;180.40;;
17177;SDS011;8704;52.006;4.374;2024-03-06T09:02:56;172.00;;;159.63;;
17177;SDS011;8704;52.006;4.374;2024-03-06T09:05:25;152.68;;;141.57;;
17177;SDS011;8704;52.006;4.374;2024-03-06T09:07:54;151.55;;;140.52;;
17177;SDS011;8704;52.006;4.374;2024-03-06T09:10:27;145.50;;;134.38;;
17177;SDS011;8704;52.006;4.374;2024-03-06T09:12:57;146.32;;;135.65;;
17177;SDS011;8704;52.006;4.374;2024-03-06T09:15:25;158.50;;;147.07;;
17177;SDS011;8704;52.006;4.374;2024-03-06T09:17:54;147.18;;;136.20;;
17177;SDS011;8704;52.006;4.374;2024-03-06T09:20:23;144.55;;;134.00;;
17177;SDS011;8704;52.006;4.374;2024-03-06T09:22:52;134.48;;;124.28;;
17177;SDS011;8704;52.006;4.374;2024-03-06T09:25:23;122.65;;;112.93;;
17177;SDS011;8704;52.006;4.374;2024-03-06T09:27:55;129.38;;;119.53;;
17177;SDS011;8704;52.006;4.374;2024-03-06T09:30:27;129.70;;;119.60;;
17177;SDS011;8704;52.006;4.374;2024-03-06T09:32:56;130.38;;;120.38;;
17177;SDS011;8704;52.006;4.374;2024-03-06T09:35:24;108.80;;;99.72;;
17177;SDS011;8704;52.006;4.374;2024-03-06T09:37:53;85.63;;;78.00;;
17177;SDS011;8704;52.006;4.374;2024-03-06T09:40:24;61.40;;;55.50;;
17177;SDS011;8704;52.006;4.374;2024-03-06T09:42:52;53.17;;;47.83;;
17177;SDS011;8704;52.006;4.374;2024-03-06T09:45:21;50.20;;;45.30;;
17177;SDS011;8704;52.006;4.374;2024-03-06T09:47:51;48.95;;;44.10;;
17177;SDS011;8704;52.006;4.374;2024-03-06T09:50:22;49.40;;;44.65;;
17177;SDS011;8704;52.006;4.374;2024-03-06T09:52:52;48.43;;;43.60;;
17177;SDS011;8704;52.006;4.374;2024-03-06T09:55:21;39.70;;;35.65;;
17177;SDS011;8704;52.006;4.374;2024-03-06T09:57:50;40.38;;;36.50;;
17177;SDS011;8704;52.006;4.374;2024-03-06T10:00:19;30.25;;;27.00;;
17177;SDS011;8704;52.006;4.374;2024-03-06T10:02:48;30.67;;;27.55;;
17177;SDS011;8704;52.006;4.374;2024-03-06T10:05:23;35.35;;;31.35;;
17177;SDS011;8704;52.006;4.374;2024-03-06T10:07:52;36.17;;;32.55;;
17177;SDS011;8704;52.006;4.374;2024-03-06T10:10:20;34.75;;;31.20;;
17177;SDS011;8704;52.006;4.374;2024-03-06T10:12:50;33.47;;;29.90;;
17177;SDS011;8704;52.006;4.374;2024-03-06T10:15:18;33.85;;;30.48;;
17177;SDS011;8704;52.006;4.374;2024-03-06T10:17:48;31.95;;;28.55;;
17177;SDS011;8704;52.006;4.374;2024-03-06T10:20:17;28.88;;;25.48;;
17177;SDS011;8704;52.006;4.374;2024-03-06T10:22:50;28.48;;;25.08;;
17177;SDS011;8704;52.006;4.374;2024-03-06T10:25:24;28.65;;;24.38;;
17177;SDS011;8704;52.006;4.374;2024-03-06T10:28:03;25.75;;;21.67;;
17177;SDS011;8704;52.006;4.374;2024-03-06T10:30:33;22.08;;;19.80;;
17177;SDS011;8704;52.006;4.374;2024-03-06T10:33:02;23.15;;;20.75;;
17177;SDS011;8704;52.006;4.374;2024-03-06T10:35:32;23.00;;;19.60;;
17177;SDS011;8704;52.006;4.374;2024-03-06T10:38:02;20.23;;;17.90;;
17177;SDS011;8704;52.006;4.374;2024-03-06T10:40:31;19.75;;;15.27;;
17177;SDS011;8704;52.006;4.374;2024-03-06T10:42:59;20.13;;;16.50;;
17177;SDS011;8704;52.006;4.374;2024-03-06T10:45:31;17.10;;;14.90;;
17177;SDS011;8704;52.006;4.374;2024-03-06T10:48:01;19.73;;;15.88;;
17177;SDS011;8704;52.006;4.374;2024-03-06T10:50:30;20.83;;;16.67;;
17177;SDS011;8704;52.006;4.374;2024-03-06T10:52:59;17.45;;;15.48;;
17177;SDS011;8704;52.006;4.374;2024-03-06T10:55:29;17.63;;;14.57;;
17177;SDS011;8704;52.006;4.374;2024-03-06T10:58:00;15.10;;;12.05;;
17177;SDS011;8704;52.006;4.374;2024-03-06T11:00:29;14.52;;;11.63;;
17177;SDS011;8704;52.006;4.374;2024-03-06T11:02:59;13.73;;;11.15;;
17177;SDS011;8704;52.006;4.374;2024-03-06T11:05:30;12.98;;;11.05;;
17177;SDS011;8704;52.006;4.374;2024-03-06T11:07:58;14.30;;;11.57;;
17177;SDS011;8704;52.006;4.374;2024-03-06T11:10:32;16.40;;;11.75;;
17177;SDS011;8704;52.006;4.374;2024-03-06T11:13:00;12.68;;;9.85;;
17177;SDS011;8704;52.006;4.374;2024-03-06T11:15:29;11.68;;;9.85;;
17177;SDS011;8704;52.006;4.374;2024-03-06T11:17:58;11.85;;;9.70;;
17177;SDS011;8704;52.006;4.374;2024-03-06T11:20:32;10.85;;;9.18;;
17177;SDS011;8704;52.006;4.374;2024-03-06T11:23:02;11.88;;;9.43;;
17177;SDS011;8704;52.006;4.374;2024-03-06T11:28:23;10.75;;;9.48;;
17177;SDS011;8704;52.006;4.374;2024-03-06T11:30:55;8.40;;;6.32;;
17177;SDS011;8704;52.006;4.374;2024-03-06T11:33:28;10.63;;;8.77;;
17177;SDS011;8704;52.006;4.374;2024-03-06T11:36:16;11.00;;;9.50;;
17177;SDS011;8704;52.006;4.374;2024-03-06T11:38:52;12.35;;;10.13;;
17177;SDS011;8704;52.006;4.374;2024-03-06T11:41:21;13.05;;;9.82;;
17177;SDS011;8704;52.006;4.374;2024-03-06T11:43:53;11.93;;;9.45;;
17177;SDS011;8704;52.006;4.374;2024-03-06T11:46:22;10.82;;;9.15;;
17177;SDS011;8704;52.006;4.374;2024-03-06T11:48:51;12.50;;;9.70;;
17177;SDS011;8704;52.006;4.374;2024-03-06T11:51:21;12.48;;;8.88;;
17177;SDS011;8704;52.006;4.374;2024-03-06T11:53:49;9.85;;;7.93;;
17177;SDS011;8704;52.006;4.374;2024-03-06T11:56:18;10.05;;;8.82;;
17177;SDS011;8704;52.006;4.374;2024-03-06T11:58:47;9.82;;;8.52;;
17177;SDS011;8704;52.006;4.374;2024-03-06T12:01:17;11.18;;;8.35;;
17177;SDS011;8704;52.006;4.374;2024-03-06T12:03:45;9.02;;;7.80;;
17177;SDS011;8704;52.006;4.374;2024-03-06T12:06:15;9.63;;;8.05;;
17177;SDS011;8704;52.006;4.374;2024-03-06T12:08:45;8.20;;;6.95;;
17177;SDS011;8704;52.006;4.374;2024-03-06T12:11:14;8.88;;;7.03;;
17177;SDS011;8704;52.006;4.374;2024-03-06T12:13:42;6.10;;;5.05;;
17177;SDS011;8704;52.006;4.374;2024-03-06T12:16:10;8.15;;;5.80;;
17177;SDS011;8704;52.006;4.374;2024-03-06T12:18:41;6.97;;;5.38;;
17177;SDS011;8704;52.006;4.374;2024-03-06T12:21:10;6.70;;;5.32;;
17177;SDS011;8704;52.006;4.374;2024-03-06T12:23:39;7.47;;;5.32;;
17177;SDS011;8704;52.006;4.374;2024-03-06T12:26:09;6.55;;;5.20;;
17177;SDS011;8704;52.006;4.374;2024-03-06T12:28:38;8.27;;;6.03;;
17177;SDS011;8704;52.006;4.374;2024-03-06T12:31:06;8.00;;;5.35;;
17177;SDS011;8704;52.006;4.374;2024-03-06T12:33:35;8.27;;;5.75;;
17177;SDS011;8704;52.006;4.374;2024-03-06T12:36:06;6.35;;;5.65;;
17177;SDS011;8704;52.006;4.374;2024-03-06T12:38:37;8.80;;;5.60;;
17177;SDS011;8704;52.006;4.374;2024-03-06T12:41:05;6.70;;;5.40;;
17177;SDS011;8704;52.006;4.374;2024-03-06T12:43:34;7.68;;;5.78;;
17177;SDS011;8704;52.006;4.374;2024-03-06T12:46:02;7.10;;;6.05;;
17177;SDS011;8704;52.006;4.374;2024-03-06T12:48:31;7.35;;;6.25;;
17177;SDS011;8704;52.006;4.374;2024-03-06T12:50:59;7.78;;;6.18;;
17177;SDS011;8704;52.006;4.374;2024-03-06T12:53:33;7.75;;;6.07;;
17177;SDS011;8704;52.006;4.374;2024-03-06T12:56:02;8.38;;;6.20;;
17177;SDS011;8704;52.006;4.374;2024-03-06T12:58:30;7.10;;;5.63;;
17177;SDS011;8704;52.006;4.374;2024-03-06T13:01:01;7.53;;;6.30;;
17177;SDS011;8704;52.006;4.374;2024-03-06T13:03:30;6.95;;;5.80;;
17177;SDS011;8704;52.006;4.374;2024-03-06T13:05:58;6.63;;;5.78;;
17177;SDS011;8704;52.006;4.374;2024-03-06T13:08:27;7.05;;;5.75;;
17177;SDS011;8704;52.006;4.374;2024-03-06T13:10:57;9.85;;;7.50;;
17177;SDS011;8704;52.006;4.374;2024-03-06T13:13:25;9.80;;;7.30;;
17177;SDS011;8704;52.006;4.374;2024-03-06T13:15:55;7.10;;;6.20;;
17177;SDS011;8704;52.006;4.374;2024-03-06T13:18:27;8.30;;;7.40;;
17177;SDS011;8704;52.006;4.374;2024-03-06T13:20:56;10.30;;;7.43;;
17177;SDS011;8704;52.006;4.374;2024-03-06T13:23:27;10.48;;;7.63;;
17177;SDS011;8704;52.006;4.374;2024-03-06T13:25:56;8.70;;;7.47;;
17177;SDS011;8704;52.006;4.374;2024-03-06T13:28:27;7.90;;;6.35;;
17177;SDS011;8704;52.006;4.374;2024-03-06T13:30:55;8.15;;;7.05;;
17177;SDS011;8704;52.006;4.374;2024-03-06T13:33:23;7.00;;;6.22;;
17177;SDS011;8704;52.006;4.374;2024-03-06T13:35:52;6.43;;;5.75;;
17177;SDS011;8704;52.006;4.374;2024-03-06T13:38:22;9.13;;;5.55;;
17177;SDS011;8704;52.006;4.374;2024-03-06T13:40:50;7.63;;;6.40;;
17177;SDS011;8704;52.006;4.374;2024-03-06T13:43:20;7.00;;;6.10;;
17177;SDS011;8704;52.006;4.374;2024-03-06T13:45:50;5.35;;;4.65;;
17177;SDS011;8704;52.006;4.374;2024-03-06T13:48:18;7.55;;;5.15;;
17177;SDS011;8704;52.006;4.374;2024-03-06T13:50:48;6.95;;;5.85;;
17177;SDS011;8704;52.006;4.374;2024-03-06T13:53:17;7.13;;;6.43;;
17177;SDS011;8704;52.006;4.374;2024-03-06T13:55:45;7.35;;;6.65;;
17177;SDS011;8704;52.006;4.374;2024-03-06T13:58:14;7.00;;;5.70;;
17177;SDS011;8704;52.006;4.374;2024-03-06T14:00:43;5.82;;;5.22;;
17177;SDS011;8704;52.006;4.374;2024-03-06T14:03:12;6.65;;;5.53;;
17177;SDS011;8704;52.006;4.374;2024-03-06T14:05:40;6.57;;;5.18;;
17177;SDS011;8704;52.006;4.374;2024-03-06T14:08:08;9.13;;;7.32;;
17177;SDS011;8704;52.006;4.374;2024-03-06T14:10:38;7.55;;;6.50;;
17177;SDS011;8704;52.006;4.374;2024-03-06T14:13:07;8.43;;;6.95;;
17177;SDS011;8704;52.006;4.374;2024-03-06T14:15:35;7.63;;;6.82;;
17177;SDS011;8704;52.006;4.374;2024-03-06T14:18:06;8.32;;;7.43;;
17177;SDS011;8704;52.006;4.374;2024-03-06T14:20:34;9.68;;;6.60;;
17177;SDS011;8704;52.006;4.374;2024-03-06T14:23:05;9.77;;;7.40;;
17177;SDS011;8704;52.006;4.374;2024-03-06T14:25:34;8.88;;;7.20;;
17177;SDS011;8704;52.006;4.374;2024-03-06T14:28:05;8.75;;;7.60;;
17177;SDS011;8704;52.006;4.374;2024-03-06T14:30:33;9.07;;;8.18;;
17177;SDS011;8704;52.006;4.374;2024-03-06T14:33:02;9.90;;;7.93;;
17177;SDS011;8704;52.006;4.374;2024-03-06T14:35:32;8.25;;;7.45;;
17177;SDS011;8704;52.006;4.374;2024-03-06T14:38:00;8.60;;;7.68;;
17177;SDS011;8704;52.006;4.374;2024-03-06T14:40:28;9.05;;;7.85;;
17177;SDS011;8704;52.006;4.374;2024-03-06T14:42:57;8.25;;;7.40;;
17177;SDS011;8704;52.006;4.374;2024-03-06T14:45:25;9.05;;;7.40;;
17177;SDS011;8704;52.006;4.374;2024-03-06T14:47:53;9.63;;;7.35;;
17177;SDS011;8704;52.006;4.374;2024-03-06T14:50:21;9.23;;;7.72;;
17177;SDS011;8704;52.006;4.374;2024-03-06T14:52:50;8.70;;;7.75;;
17177;SDS011;8704;52.006;4.374;2024-03-06T14:55:19;25.90;;;22.40;;